14°C Temp
8°C Dewpoint
67% Humidity
Temperature
16 KM/H
10 MPH
9 KTS
230°
South West

Wind Speed
Thunderstorm
Conditions
Pressure 991.92 (hPa) - 29.29 (in)
Visibility 6.2 (mi) - 10.0 (km)

Current Conditions
LIMJ
Location 7(km)
Metar :LIMJ 272020Z 23009KT 9999 -TSRA FEW030CB SCT032 BKN080 14/08 Q0992
Sat 27th November 22:20 pm

Airport
  Metar Aviation API Data Provided by https://www.checkwx.com/ PHP scripts by weather34.com ©2021